createdAt,value
2023-05-25T00:00:31.349Z,99.99
2023-05-25T00:01:31.300Z,99.99
2023-05-25T00:02:31.378Z,99.99
2023-05-25T00:03:32.167Z,99.99
2023-05-25T00:04:31.288Z,99.99
2023-05-25T00:05:31.268Z,99.99
2023-05-25T00:06:31.245Z,99.99
2023-05-25T00:07:31.235Z,99.99
2023-05-25T00:08:31.336Z,99.99
2023-05-25T00:09:31.219Z,99.99
2023-05-25T00:10:31.209Z,99.99
2023-05-25T00:11:31.160Z,99.99
2023-05-25T00:12:31.154Z,99.99
2023-05-25T00:13:31.130Z,99.99
2023-05-25T00:14:31.227Z,99.99
2023-05-25T00:15:31.133Z,99.99
2023-05-25T00:16:31.154Z,99.99
2023-05-25T00:17:31.107Z,99.99
2023-05-25T00:18:31.082Z,99.99
2023-05-25T00:19:31.068Z,99.99
2023-05-25T00:20:31.072Z,99.99
2023-05-25T00:21:31.042Z,99.99
2023-05-25T00:22:31.019Z,99.99
2023-05-25T00:23:31.040Z,99.99
2023-05-25T00:24:30.999Z,99.99
2023-05-25T00:25:30.987Z,99.99
2023-05-25T00:26:30.981Z,99.99
2023-05-25T00:27:30.959Z,99.99
2023-05-25T00:28:30.956Z,99.99
2023-05-25T00:29:30.915Z,99.99
2023-05-25T00:30:30.907Z,99.99
2023-05-25T00:31:30.945Z,99.99
2023-05-25T00:32:30.915Z,99.99
2023-05-25T00:33:30.916Z,99.99
2023-05-25T00:34:30.865Z,99.99
2023-05-25T00:35:30.862Z,99.99
2023-05-25T00:36:30.823Z,99.99
2023-05-25T00:37:30.834Z,99.99
2023-05-25T00:38:30.816Z,99.99
2023-05-25T00:39:30.810Z,99.99
2023-05-25T00:40:30.782Z,99.99
2023-05-25T00:41:30.764Z,99.99
2023-05-25T00:42:30.783Z,99.99
2023-05-25T00:43:30.732Z,99.99
2023-05-25T00:44:30.787Z,99.99
2023-05-25T00:45:30.706Z,99.99
2023-05-25T00:46:30.763Z,99.99
2023-05-25T00:47:30.708Z,99.99
2023-05-25T00:48:30.662Z,99.99
2023-05-25T00:49:30.650Z,99.99
2023-05-25T00:50:30.640Z,99.99
2023-05-25T00:51:30.644Z,99.99
2023-05-25T00:52:30.626Z,99.99
2023-05-25T00:53:30.585Z,99.99
2023-05-25T00:54:30.572Z,99.99
2023-05-25T00:55:30.568Z,99.99
2023-05-25T00:56:30.568Z,99.99
2023-05-25T00:57:30.537Z,99.99
2023-05-25T00:58:30.529Z,99.99
2023-05-25T00:59:30.509Z,99.99
2023-05-25T01:00:30.491Z,99.99
2023-05-25T01:01:30.544Z,99.99
2023-05-25T01:02:30.513Z,99.99
2023-05-25T01:03:30.535Z,99.99
2023-05-25T01:04:30.458Z,99.99
2023-05-25T01:05:30.475Z,99.99
2023-05-25T01:06:30.431Z,99.99
2023-05-25T01:07:30.404Z,99.99
2023-05-25T01:08:30.386Z,99.99
2023-05-25T01:09:30.381Z,99.99
2023-05-25T01:10:30.397Z,99.99
2023-05-25T01:11:30.355Z,99.99
2023-05-25T01:12:30.338Z,99.99
2023-05-25T01:13:30.338Z,99.99
2023-05-25T01:14:30.321Z,99.99
2023-05-25T01:15:30.310Z,99.99
2023-05-25T01:16:30.304Z,99.99
2023-05-25T01:17:29.849Z,99.99
2023-05-25T01:18:30.260Z,99.99
2023-05-25T01:19:30.255Z,99.99
2023-05-25T01:20:30.298Z,99.99
2023-05-25T01:21:30.220Z,99.99
2023-05-25T01:22:30.205Z,99.99
2023-05-25T01:23:30.194Z,99.99
2023-05-25T01:24:30.192Z,99.99
2023-05-25T01:25:30.175Z,99.99
2023-05-25T01:26:30.150Z,99.99
2023-05-25T01:27:30.140Z,99.99
2023-05-25T01:28:30.117Z,99.99
2023-05-25T01:29:30.130Z,99.99
2023-05-25T01:30:30.090Z,99.99
2023-05-25T01:31:30.129Z,99.99
2023-05-25T01:32:30.082Z,99.99
2023-05-25T01:33:30.058Z,99.99
2023-05-25T01:34:30.059Z,99.99
2023-05-25T01:35:30.033Z,99.99
2023-05-25T01:36:30.022Z,99.99
2023-05-25T01:37:30.015Z,99.99
2023-05-25T01:38:29.980Z,99.99
2023-05-25T01:39:29.979Z,99.95
2023-05-25T01:40:29.954Z,99.74
2023-05-25T01:41:29.945Z,99.95
2023-05-25T01:42:29.964Z,99.84
2023-05-25T01:43:29.926Z,99.43
2023-05-25T01:44:29.908Z,99.84
2023-05-25T01:45:29.932Z,99.43
2023-05-25T01:46:29.906Z,99.22
2023-05-25T01:47:29.884Z,98.92
2023-05-25T01:48:29.847Z,99.74
2023-05-25T01:49:29.820Z,99.43
2023-05-25T01:50:29.865Z,99.54
2023-05-25T01:51:29.828Z,99.43
2023-05-25T01:52:29.902Z,98.96
2023-05-25T01:53:29.811Z,98.76
2023-05-25T01:54:29.753Z,99.02
2023-05-25T01:55:29.765Z,98.25
2023-05-25T01:56:29.745Z,98.35
2023-05-25T01:57:29.751Z,98.25
2023-05-25T01:58:29.709Z,97.32
2023-05-25T01:59:29.698Z,97.02
2023-05-25T02:00:29.669Z,96.91
2023-05-25T02:01:29.738Z,96.91
2023-05-25T02:02:29.670Z,97.12
2023-05-25T02:03:29.639Z,96.70
2023-05-25T02:04:29.638Z,97.12
2023-05-25T02:05:29.607Z,97.22
2023-05-25T02:06:29.625Z,97.32
2023-05-25T02:07:29.605Z,97.42
2023-05-25T02:08:29.091Z,97.69
2023-05-25T02:09:29.568Z,97.89
2023-05-25T02:10:29.566Z,97.48
2023-05-25T02:11:29.594Z,97.79
2023-05-25T02:12:29.521Z,97.89
2023-05-25T02:13:29.518Z,97.89
2023-05-25T02:14:28.212Z,98.30
2023-05-25T02:15:29.481Z,98.71
2023-05-25T02:16:29.586Z,98.51
2023-05-25T02:17:29.478Z,98.61
2023-05-25T02:18:29.443Z,98.30
2023-05-25T02:19:29.441Z,98.61
2023-05-25T02:20:27.960Z,97.99
2023-05-25T02:21:29.429Z,98.51
2023-05-25T02:22:29.389Z,98.30
2023-05-25T02:23:29.364Z,98.82
2023-05-25T02:24:29.352Z,98.10
2023-05-25T02:25:29.356Z,97.79
2023-05-25T02:26:29.342Z,97.69
2023-05-25T02:27:29.314Z,97.69
2023-05-25T02:28:29.312Z,97.42
2023-05-25T02:29:29.293Z,97.42
2023-05-25T02:30:29.344Z,97.32
2023-05-25T02:31:29.322Z,97.02
2023-05-25T02:32:29.291Z,97.12
2023-05-25T02:33:29.245Z,96.81
2023-05-25T02:34:29.233Z,96.40
2023-05-25T02:35:29.233Z,95.62
2023-05-25T02:36:29.184Z,94.80
2023-05-25T02:37:29.209Z,94.29
2023-05-25T02:38:29.174Z,94.29
2023-05-25T02:39:29.166Z,94.70
2023-05-25T02:40:29.150Z,94.59
2023-05-25T02:41:29.131Z,94.59
2023-05-25T02:42:29.122Z,93.98
2023-05-25T02:43:29.109Z,93.46
2023-05-25T02:44:29.125Z,92.27
2023-05-25T02:45:29.095Z,92.58
2023-05-25T02:46:29.116Z,92.27
2023-05-25T02:47:29.099Z,93.05
2023-05-25T02:48:29.069Z,92.95
2023-05-25T02:49:29.037Z,92.74
2023-05-25T02:50:29.031Z,93.77
2023-05-25T02:51:29.004Z,93.26
2023-05-25T02:52:29.003Z,93.36
2023-05-25T02:53:29.003Z,93.46
2023-05-25T02:54:29.014Z,93.67
2023-05-25T02:55:28.970Z,93.36
2023-05-25T02:56:28.953Z,93.46
2023-05-25T02:57:28.955Z,93.36
2023-05-25T02:58:28.965Z,93.98
2023-05-25T02:59:28.968Z,94.85
2023-05-25T03:00:28.910Z,94.96
2023-05-25T03:01:28.960Z,94.96
2023-05-25T03:02:28.935Z,94.14
2023-05-25T03:03:28.886Z,94.96
2023-05-25T03:04:28.813Z,94.65
2023-05-25T03:05:28.805Z,94.34
2023-05-25T03:06:28.797Z,94.34
2023-05-25T03:07:28.800Z,94.55
2023-05-25T03:08:28.801Z,94.76
2023-05-25T03:09:28.759Z,94.55
2023-05-25T03:10:28.778Z,94.55
2023-05-25T03:11:28.722Z,94.34
2023-05-25T03:12:28.710Z,94.65
2023-05-25T03:13:28.705Z,94.24
2023-05-25T03:14:28.684Z,94.34
2023-05-25T03:15:28.660Z,94.34
2023-05-25T03:16:28.722Z,93.83
2023-05-25T03:17:28.742Z,93.93
2023-05-25T03:18:28.657Z,94.55
2023-05-25T03:19:28.129Z,94.04
2023-05-25T03:20:28.610Z,94.04
2023-05-25T03:21:28.609Z,93.52
2023-05-25T03:22:28.580Z,94.04
2023-05-25T03:23:28.548Z,93.21
2023-05-25T03:24:28.548Z,93.05
2023-05-25T03:25:28.541Z,92.85
2023-05-25T03:26:28.514Z,92.64
2023-05-25T03:27:28.519Z,91.93
2023-05-25T03:28:28.479Z,91.93
2023-05-25T03:29:28.484Z,91.61
2023-05-25T03:30:28.483Z,91.31
2023-05-25T03:31:28.470Z,91.61
2023-05-25T03:32:28.505Z,92.23
2023-05-25T03:33:28.421Z,92.44
2023-05-25T03:34:28.415Z,92.03
2023-05-25T03:35:28.424Z,91.82
2023-05-25T03:36:28.393Z,90.38
2023-05-25T03:37:28.392Z,90.48
2023-05-25T03:38:28.357Z,90.48
2023-05-25T03:39:28.348Z,90.80
2023-05-25T03:40:28.335Z,90.89
2023-05-25T03:41:28.330Z,89.97
2023-05-25T03:42:28.328Z,89.87
2023-05-25T03:43:28.292Z,89.87
2023-05-25T03:44:28.263Z,89.29
2023-05-25T03:45:28.306Z,89.46
2023-05-25T03:46:28.412Z,88.89
2023-05-25T03:47:28.264Z,88.37
2023-05-25T03:48:28.257Z,88.27
2023-05-25T03:49:28.235Z,88.33
2023-05-25T03:50:28.222Z,87.82
2023-05-25T03:51:28.225Z,88.12
2023-05-25T03:52:28.165Z,87.82
2023-05-25T03:53:28.172Z,88.12
2023-05-25T03:54:28.166Z,87.51
2023-05-25T03:55:28.152Z,87.92
2023-05-25T03:56:28.147Z,87.30
2023-05-25T03:57:28.101Z,87.71
2023-05-25T03:58:28.118Z,88.33
2023-05-25T03:59:28.132Z,89.46
2023-05-25T04:00:28.073Z,89.25
2023-05-25T04:01:28.051Z,88.95
2023-05-25T04:02:28.142Z,89.25
2023-05-25T04:03:28.204Z,89.25
2023-05-25T04:04:28.055Z,89.04
2023-05-25T04:05:27.992Z,88.43
2023-05-25T04:06:27.977Z,88.64
2023-05-25T04:07:27.985Z,88.64
2023-05-25T04:08:27.949Z,88.59
2023-05-25T04:09:27.941Z,88.59
2023-05-25T04:10:27.951Z,88.02
2023-05-25T04:11:27.904Z,88.43
2023-05-25T04:12:27.902Z,88.39
2023-05-25T04:13:27.886Z,88.70
2023-05-25T04:14:27.888Z,87.26
2023-05-25T04:15:27.885Z,87.88
2023-05-25T04:16:27.940Z,88.29
2023-05-25T04:17:27.863Z,88.70
2023-05-25T04:18:27.829Z,89.11
2023-05-25T04:19:27.818Z,89.93
2023-05-25T04:20:27.828Z,89.99
2023-05-25T04:21:27.787Z,90.50
2023-05-25T04:22:27.782Z,90.91
2023-05-25T04:23:27.765Z,91.22
2023-05-25T04:24:27.735Z,91.33
2023-05-25T04:25:29.524Z,91.02
2023-05-25T04:26:27.704Z,91.63
2023-05-25T04:27:27.687Z,91.12
2023-05-25T04:28:27.683Z,91.42
2023-05-25T04:29:27.663Z,91.84
2023-05-25T04:30:27.661Z,92.10
2023-05-25T04:31:27.727Z,92.41
2023-05-25T04:32:27.642Z,92.31
2023-05-25T04:33:27.630Z,92.31
2023-05-25T04:34:27.604Z,91.74
2023-05-25T04:35:27.582Z,91.42
2023-05-25T04:36:27.575Z,91.42
2023-05-25T04:37:27.687Z,92.14
2023-05-25T04:38:27.562Z,91.53
2023-05-25T04:39:27.533Z,92.10
2023-05-25T04:40:27.529Z,92.93
2023-05-25T04:41:27.496Z,92.10
2023-05-25T04:42:27.510Z,93.33
2023-05-25T04:43:27.457Z,94.11
2023-05-25T04:44:27.454Z,94.62
2023-05-25T04:45:27.452Z,96.12
2023-05-25T04:46:27.493Z,97.86
2023-05-25T04:47:27.461Z,98.22
2023-05-25T04:48:27.408Z,99.66
2023-05-25T04:49:27.397Z,99.99
2023-05-25T04:50:27.393Z,99.99
2023-05-25T04:51:27.374Z,99.99
2023-05-25T04:52:27.371Z,99.99
2023-05-25T04:53:25.538Z,99.99
2023-05-25T04:54:27.325Z,99.99
2023-05-25T04:55:27.355Z,99.99
2023-05-25T04:56:27.312Z,99.99
2023-05-25T04:57:27.295Z,99.99
2023-05-25T04:58:27.279Z,99.99
2023-05-25T04:59:27.253Z,99.99
2023-05-25T05:00:27.258Z,99.99
2023-05-25T05:01:27.292Z,99.99
2023-05-25T05:02:27.263Z,99.99
2023-05-25T05:03:27.274Z,99.99
2023-05-25T05:04:27.197Z,99.99
2023-05-25T05:05:27.183Z,99.99
2023-05-25T05:06:27.183Z,99.99
2023-05-25T05:07:27.137Z,99.99
2023-05-25T05:08:27.137Z,99.99
2023-05-25T05:09:27.116Z,99.99
2023-05-25T05:10:27.108Z,99.99
2023-05-25T05:11:27.103Z,99.99
2023-05-25T05:12:27.088Z,99.99
2023-05-25T05:13:27.066Z,99.99
2023-05-25T05:14:27.058Z,99.99
2023-05-25T05:15:27.045Z,99.99
2023-05-25T05:16:27.084Z,99.99
2023-05-25T05:17:27.047Z,99.99
2023-05-25T05:18:27.007Z,99.99
2023-05-25T05:19:27.007Z,98.08
2023-05-25T05:20:27.010Z,98.74
2023-05-25T05:21:26.963Z,99.20
2023-05-25T05:22:26.999Z,97.32
2023-05-25T05:23:26.938Z,94.73
2023-05-25T05:24:26.915Z,90.62
2023-05-25T05:25:26.912Z,88.44
2023-05-25T05:26:26.888Z,85.90
2023-05-25T05:27:26.878Z,86.31
2023-05-25T05:28:26.874Z,85.55
2023-05-25T05:29:26.953Z,86.07
2023-05-25T05:30:26.849Z,81.35
2023-05-25T05:31:26.824Z,79.83
2023-05-25T05:32:26.818Z,79.32
2023-05-25T05:33:26.893Z,81.39
2023-05-25T05:34:26.801Z,87.92
2023-05-25T05:35:26.784Z,94.72
2023-05-25T05:36:26.759Z,99.40
2023-05-25T05:37:26.748Z,99.99
2023-05-25T05:38:26.739Z,99.99
2023-05-25T05:39:26.750Z,99.99
2023-05-25T05:40:26.709Z,99.99
2023-05-25T05:41:26.191Z,99.99
2023-05-25T05:42:26.671Z,99.99
2023-05-25T05:43:26.700Z,99.99
2023-05-25T05:44:29.077Z,99.99
2023-05-25T05:45:26.628Z,99.99
2023-05-25T05:46:26.627Z,99.99
2023-05-25T05:47:26.647Z,99.99
2023-05-25T05:48:26.591Z,99.99
2023-05-25T05:49:26.562Z,99.99
2023-05-25T05:50:26.544Z,99.99
2023-05-25T05:51:26.542Z,99.99
2023-05-25T05:52:26.526Z,99.99
2023-05-25T05:53:26.523Z,99.99
2023-05-25T05:54:26.514Z,99.99
2023-05-25T05:55:26.518Z,99.99
2023-05-25T05:56:26.496Z,99.99
2023-05-25T05:57:26.495Z,99.99
2023-05-25T05:58:26.449Z,99.99
2023-05-25T05:59:26.438Z,99.99
2023-05-25T06:00:26.423Z,99.99
2023-05-25T06:01:26.409Z,99.99
2023-05-25T06:02:26.453Z,99.99
2023-05-25T06:03:26.419Z,99.99
2023-05-25T06:04:26.388Z,99.99
2023-05-25T06:05:26.387Z,99.99
2023-05-25T06:06:26.353Z,99.99
2023-05-25T06:07:26.328Z,99.99
2023-05-25T06:08:26.336Z,99.99
2023-05-25T06:09:26.292Z,99.99
2023-05-25T06:10:26.288Z,99.99
2023-05-25T06:11:26.271Z,99.99
2023-05-25T06:12:26.282Z,99.99
2023-05-25T06:13:26.254Z,99.99
2023-05-25T06:14:28.295Z,99.99
2023-05-25T06:15:26.229Z,99.99
2023-05-25T06:16:26.238Z,95.65
2023-05-25T06:17:26.256Z,82.71
2023-05-25T06:18:26.205Z,74.88
2023-05-25T06:19:26.151Z,70.89
2023-05-25T06:20:26.212Z,66.58
2023-05-25T06:21:26.142Z,65.61
2023-05-25T06:22:26.130Z,63.19
2023-05-25T06:23:26.129Z,60.64
2023-05-25T06:24:26.106Z,60.66
2023-05-25T06:25:26.091Z,60.57
2023-05-25T06:26:26.100Z,59.60
2023-05-25T06:27:26.064Z,58.26
2023-05-25T06:28:26.038Z,57.73
2023-05-25T06:29:26.029Z,57.05
2023-05-25T06:30:26.020Z,58.82
2023-05-25T06:31:26.036Z,59.30
2023-05-25T06:32:26.011Z,58.34
2023-05-25T06:33:25.976Z,56.49
2023-05-25T06:34:25.955Z,56.55
2023-05-25T06:35:25.955Z,56.90
2023-05-25T06:36:27.391Z,55.79
2023-05-25T06:37:25.926Z,54.75
2023-05-25T06:38:25.909Z,55.51
2023-05-25T06:39:25.887Z,55.59
2023-05-25T06:40:25.883Z,55.13
2023-05-25T06:41:25.876Z,54.15
2023-05-25T06:42:25.864Z,54.75
2023-05-25T06:43:25.837Z,54.48
2023-05-25T06:44:25.832Z,54.96
2023-05-25T06:45:25.826Z,54.33
2023-05-25T06:46:25.830Z,53.42
2023-05-25T06:47:25.795Z,53.27
2023-05-25T06:48:25.764Z,52.74
2023-05-25T06:49:25.769Z,52.92
2023-05-25T06:50:25.784Z,51.92
2023-05-25T06:51:25.710Z,52.44
2023-05-25T06:52:25.711Z,51.01
2023-05-25T06:53:25.699Z,51.74
2023-05-25T06:54:25.680Z,52.09
2023-05-25T06:55:25.675Z,52.67
2023-05-25T06:56:25.655Z,52.55
2023-05-25T06:57:25.637Z,51.94
2023-05-25T06:58:25.622Z,51.61
2023-05-25T06:59:25.611Z,52.29
2023-05-25T07:00:25.614Z,50.68
2023-05-25T07:01:25.662Z,52.64
2023-05-25T07:02:25.581Z,52.42
2023-05-25T07:03:25.564Z,51.46
2023-05-25T07:04:25.576Z,51.04
2023-05-25T07:05:25.571Z,49.91
2023-05-25T07:06:25.533Z,49.41
2023-05-25T07:07:25.487Z,49.08
2023-05-25T07:08:25.494Z,49.29
2023-05-25T07:09:25.058Z,49.07
2023-05-25T07:10:25.528Z,48.57
2023-05-25T07:11:25.450Z,48.69
2023-05-25T07:12:25.441Z,48.89
2023-05-25T07:13:25.434Z,49.63
2023-05-25T07:14:25.439Z,49.93
2023-05-25T07:15:25.409Z,49.41
2023-05-25T07:16:25.449Z,49.29
2023-05-25T07:17:25.502Z,49.11
2023-05-25T07:18:25.366Z,48.99
2023-05-25T07:19:25.351Z,48.36
2023-05-25T07:20:25.460Z,49.51
2023-05-25T07:21:25.327Z,49.04
2023-05-25T07:22:25.308Z,48.81
2023-05-25T07:23:25.293Z,48.96
2023-05-25T07:24:25.287Z,47.78
2023-05-25T07:25:25.286Z,47.78
2023-05-25T07:26:25.248Z,47.96
2023-05-25T07:27:25.263Z,47.34
2023-05-25T07:28:25.248Z,46.42
2023-05-25T07:29:25.208Z,46.31
2023-05-25T07:30:25.230Z,46.51
2023-05-25T07:31:25.239Z,45.84
2023-05-25T07:32:25.215Z,47.04
2023-05-25T07:33:25.171Z,45.84
2023-05-25T07:34:26.528Z,44.87
2023-05-25T07:35:24.625Z,44.70
2023-05-25T07:36:25.163Z,44.87
2023-05-25T07:37:25.116Z,44.57
2023-05-25T07:38:25.096Z,45.42
2023-05-25T07:39:25.072Z,44.79
2023-05-25T07:40:25.067Z,45.14
2023-05-25T07:41:25.085Z,44.79
2023-05-25T07:42:25.049Z,45.07
2023-05-25T07:43:25.036Z,44.43
2023-05-25T07:44:25.012Z,43.13
2023-05-25T07:45:24.980Z,42.69
2023-05-25T07:46:25.165Z,41.83
2023-05-25T07:47:25.019Z,42.33
2023-05-25T07:48:24.958Z,42.91
2023-05-25T07:49:24.948Z,43.19
2023-05-25T07:50:24.939Z,41.91
2023-05-25T07:51:24.929Z,41.41
2023-05-25T07:52:24.903Z,42.21
2023-05-25T07:53:24.877Z,42.35
2023-05-25T07:54:24.879Z,43.12
2023-05-25T07:55:24.859Z,43.43
2023-05-25T07:56:24.858Z,44.21
2023-05-25T07:57:24.835Z,43.35
2023-05-25T07:58:24.824Z,42.54
2023-05-25T07:59:24.801Z,42.24
2023-05-25T08:00:24.810Z,41.61
2023-05-25T08:01:26.900Z,41.77
2023-05-25T08:02:24.851Z,40.98
2023-05-25T08:03:39.873Z,41.36
2023-05-25T08:04:25.787Z,40.76
2023-05-25T08:05:24.761Z,41.02
2023-05-25T08:06:24.726Z,40.72
2023-05-25T08:07:24.722Z,40.12
2023-05-25T08:08:24.740Z,40.84
2023-05-25T08:09:24.690Z,40.86
2023-05-25T08:10:24.669Z,40.86
2023-05-25T08:11:24.689Z,42.05
2023-05-25T08:13:25.616Z,40.06
2023-05-25T08:14:24.617Z,39.48
2023-05-25T08:15:24.600Z,40.30
2023-05-25T08:16:24.657Z,40.86
2023-05-25T08:17:24.663Z,41.89
2023-05-25T08:18:24.555Z,41.75
2023-05-25T08:19:24.543Z,41.66
2023-05-25T08:20:24.589Z,41.31
2023-05-25T08:21:24.525Z,40.78
2023-05-25T08:22:24.515Z,40.56
2023-05-25T08:23:24.487Z,39.48
2023-05-25T08:24:24.494Z,40.50
2023-05-25T08:25:29.415Z,39.98
2023-05-25T08:26:38.323Z,40.18
2023-05-25T08:27:25.435Z,40.34
2023-05-25T08:28:24.409Z,39.53
2023-05-25T08:29:24.424Z,39.12
2023-05-25T08:30:24.410Z,39.40
2023-05-25T08:31:24.096Z,38.79
2023-05-25T08:32:24.424Z,38.07
2023-05-25T08:33:25.986Z,39.83
2023-05-25T08:34:24.342Z,40.54
2023-05-25T08:35:24.327Z,39.72
2023-05-25T08:36:24.322Z,38.71
2023-05-25T08:37:24.301Z,38.63
2023-05-25T08:38:24.304Z,39.14
2023-05-25T08:39:24.279Z,41.09
2023-05-25T08:40:24.270Z,40.56
2023-05-25T08:41:24.255Z,40.28
2023-05-25T08:42:24.241Z,40.58
2023-05-25T08:43:24.233Z,40.04
2023-05-25T08:44:24.209Z,39.80
2023-05-25T08:45:35.316Z,40.30
2023-05-25T08:46:25.213Z,39.23
2023-05-25T08:47:24.183Z,39.26
2023-05-25T08:48:39.472Z,38.86
2023-05-25T08:49:25.232Z,40.59
2023-05-25T08:50:24.129Z,40.24
2023-05-25T08:51:24.143Z,40.20
2023-05-25T08:52:24.145Z,38.41
2023-05-25T08:53:24.105Z,38.65
2023-05-25T08:54:24.095Z,39.56
2023-05-25T08:55:24.074Z,40.38
2023-05-25T08:56:24.053Z,40.08
2023-05-25T08:57:24.068Z,41.39
2023-05-25T08:58:24.051Z,40.59
2023-05-25T08:59:24.024Z,40.68
2023-05-25T09:00:23.510Z,39.54
2023-05-25T09:01:24.048Z,39.50
2023-05-25T09:02:24.026Z,38.57
2023-05-25T09:03:24.025Z,37.99
2023-05-25T09:04:23.954Z,38.53
2023-05-25T09:05:23.951Z,38.43
2023-05-25T09:06:23.933Z,39.14
2023-05-25T09:07:23.927Z,39.14
2023-05-25T09:08:23.901Z,39.44
2023-05-25T09:09:23.902Z,39.23
2023-05-25T09:10:23.879Z,39.64
2023-05-25T09:11:37.316Z,39.26
2023-05-25T09:12:24.861Z,39.53
2023-05-25T09:13:23.864Z,38.54
2023-05-25T09:14:23.828Z,39.25
2023-05-25T09:15:23.815Z,39.25
2023-05-25T09:16:23.840Z,39.44
2023-05-25T09:17:23.789Z,40.34
2023-05-25T09:18:23.811Z,39.53
2023-05-25T09:19:23.766Z,39.53
2023-05-25T09:20:23.749Z,39.11
2023-05-25T09:21:23.737Z,39.90
2023-05-25T09:22:23.740Z,39.48
2023-05-25T09:23:23.734Z,39.65
2023-05-25T09:24:23.689Z,38.33
2023-05-25T09:25:23.714Z,39.54
2023-05-25T09:26:23.681Z,40.06
2023-05-25T09:27:23.677Z,41.12
2023-05-25T09:28:27.304Z,40.40
2023-05-25T09:29:23.633Z,39.76
2023-05-25T09:30:23.632Z,40.56
2023-05-25T09:31:23.764Z,40.14
2023-05-25T09:32:23.648Z,39.68
2023-05-25T09:33:23.587Z,40.88
2023-05-25T09:34:23.617Z,41.39
2023-05-25T09:35:23.585Z,41.16
2023-05-25T09:36:23.682Z,40.22
2023-05-25T09:37:23.739Z,40.10
2023-05-25T09:38:23.728Z,39.90
2023-05-25T09:39:23.715Z,39.90
2023-05-25T09:40:23.497Z,39.70
2023-05-25T09:41:23.482Z,40.22
2023-05-25T09:42:23.479Z,40.74
2023-05-25T09:43:39.707Z,40.60
2023-05-25T09:44:24.461Z,40.00
2023-05-25T09:45:23.450Z,40.00
2023-05-25T09:46:23.505Z,40.10
2023-05-25T09:47:23.441Z,39.90
2023-05-25T09:48:23.402Z,40.00
2023-05-25T09:49:23.403Z,40.80
2023-05-25T09:50:23.405Z,39.90
2023-05-25T09:51:23.374Z,40.68
2023-05-25T09:52:23.347Z,40.08
2023-05-25T09:53:23.347Z,39.29
2023-05-25T09:54:23.328Z,39.97
2023-05-25T09:55:23.316Z,40.14
2023-05-25T09:56:23.295Z,38.92
2023-05-25T09:57:23.286Z,38.92
2023-05-25T09:58:23.265Z,38.57
2023-05-25T09:59:23.569Z,39.90
2023-05-25T10:00:23.233Z,40.18
2023-05-25T10:01:23.269Z,39.39
2023-05-25T10:02:23.224Z,39.98
2023-05-25T10:03:23.293Z,40.48
2023-05-25T10:04:23.261Z,39.48
2023-05-25T10:05:23.181Z,39.89
2023-05-25T10:06:23.187Z,39.35
2023-05-25T10:07:23.254Z,38.93
2023-05-25T10:08:23.158Z,38.24
2023-05-25T10:09:23.198Z,38.93
2023-05-25T10:10:23.127Z,38.04
2023-05-25T10:11:23.122Z,38.65
2023-05-25T10:12:23.116Z,39.15
2023-05-25T10:13:23.108Z,38.67
2023-05-25T10:14:23.085Z,39.17
2023-05-25T10:15:23.047Z,39.71
2023-05-25T10:16:23.089Z,37.49
2023-05-25T10:17:23.095Z,36.99
2023-05-25T10:18:23.030Z,37.17
2023-05-25T10:19:23.037Z,37.07
2023-05-25T10:20:23.053Z,37.07
2023-05-25T10:21:22.959Z,37.37
2023-05-25T10:22:22.969Z,37.27
2023-05-25T10:23:22.976Z,37.81
2023-05-25T10:24:22.961Z,39.00
2023-05-25T10:25:22.931Z,37.51
2023-05-25T10:26:22.920Z,37.60
2023-05-25T10:27:27.620Z,38.26
2023-05-25T10:28:23.884Z,37.57
2023-05-25T10:29:22.869Z,35.90
2023-05-25T10:30:22.873Z,37.27
2023-05-25T10:31:22.913Z,37.51
2023-05-25T10:32:22.902Z,37.43
2023-05-25T10:33:22.832Z,38.10
2023-05-25T10:34:22.820Z,37.60
2023-05-25T10:35:22.811Z,37.29
2023-05-25T10:36:22.788Z,37.29
2023-05-25T10:37:22.807Z,37.07
2023-05-25T10:38:22.763Z,38.36
2023-05-25T10:39:22.740Z,37.39
2023-05-25T10:40:22.740Z,37.45
2023-05-25T10:41:22.722Z,36.98
2023-05-25T10:42:22.718Z,36.68
2023-05-25T10:43:22.707Z,37.57
2023-05-25T10:44:22.693Z,37.19
2023-05-25T10:45:22.679Z,37.69
2023-05-25T10:46:22.804Z,36.91
2023-05-25T10:47:22.760Z,38.52
2023-05-25T10:48:22.666Z,38.60
2023-05-25T10:49:22.646Z,37.69
2023-05-25T10:50:22.608Z,36.90
2023-05-25T10:51:22.600Z,37.19
2023-05-25T10:52:22.611Z,36.58
2023-05-25T10:53:22.569Z,35.88
2023-05-25T10:54:22.554Z,38.64
2023-05-25T10:55:22.552Z,36.64
2023-05-25T10:56:22.531Z,36.98
2023-05-25T10:57:22.513Z,38.09
2023-05-25T10:58:22.490Z,36.88
2023-05-25T10:59:22.484Z,37.05
2023-05-25T11:00:22.517Z,36.94
2023-05-25T11:01:22.533Z,36.26
2023-05-25T11:02:22.492Z,35.69
2023-05-25T11:03:22.456Z,36.07
2023-05-25T11:04:22.461Z,36.86
2023-05-25T11:05:22.425Z,36.05
2023-05-25T11:06:22.389Z,35.63
2023-05-25T11:07:22.392Z,35.61
2023-05-25T11:08:22.381Z,35.40
2023-05-25T11:09:22.368Z,34.43
2023-05-25T11:10:22.402Z,35.22
2023-05-25T11:11:22.378Z,34.94
2023-05-25T11:12:22.320Z,34.73
2023-05-25T11:13:22.318Z,34.27
2023-05-25T11:14:22.318Z,35.44
2023-05-25T11:15:22.313Z,35.63
2023-05-25T11:16:22.407Z,34.61
2023-05-25T11:17:22.312Z,34.81
2023-05-25T11:18:22.238Z,33.85
2023-05-25T11:19:22.262Z,34.52
2023-05-25T11:20:22.254Z,35.31
2023-05-25T11:21:22.233Z,35.62
2023-05-25T11:22:22.203Z,37.84
2023-05-25T11:23:22.179Z,36.32
2023-05-25T11:24:22.190Z,35.32
2023-05-25T11:25:22.161Z,35.41
2023-05-25T11:26:22.152Z,34.78
2023-05-25T11:27:22.132Z,33.98
2023-05-25T11:28:22.116Z,34.84
2023-05-25T11:29:22.116Z,33.44
2023-05-25T11:30:22.083Z,33.34
2023-05-25T11:31:22.116Z,33.84
2023-05-25T11:32:22.219Z,34.13
2023-05-25T11:33:22.063Z,34.94
2023-05-25T11:34:22.090Z,34.25
2023-05-25T11:35:22.046Z,35.02
2023-05-25T11:36:22.046Z,35.04
2023-05-25T11:37:22.030Z,35.44
2023-05-25T11:38:21.997Z,34.74
2023-05-25T11:39:23.289Z,36.11
2023-05-25T11:40:21.967Z,36.71
2023-05-25T11:41:21.966Z,36.88
2023-05-25T11:42:21.935Z,35.37
2023-05-25T11:43:21.959Z,33.89
2023-05-25T11:44:21.914Z,34.68
2023-05-25T11:45:21.914Z,34.46
2023-05-25T11:46:21.932Z,34.05
2023-05-25T11:47:21.898Z,33.45
2023-05-25T11:48:21.470Z,33.44
2023-05-25T11:49:21.925Z,33.92
2023-05-25T11:50:21.865Z,33.92
2023-05-25T11:51:21.851Z,33.51
2023-05-25T11:52:21.845Z,32.90
2023-05-25T11:53:21.824Z,32.04
2023-05-25T11:54:21.801Z,32.93
2023-05-25T11:55:21.809Z,33.23
2023-05-25T11:56:34.217Z,32.65
2023-05-25T11:57:22.785Z,33.06
2023-05-25T11:58:20.059Z,33.85
2023-05-25T11:59:21.744Z,34.36
2023-05-25T12:00:21.712Z,34.30
2023-05-25T12:01:21.713Z,35.78
2023-05-25T12:02:21.710Z,34.68
2023-05-25T12:03:19.923Z,34.28
2023-05-25T12:04:24.002Z,33.90
2023-05-25T12:05:21.713Z,35.34
2023-05-25T12:06:21.659Z,36.04
2023-05-25T12:07:21.635Z,36.15
2023-05-25T12:08:21.619Z,37.19
2023-05-25T12:09:21.598Z,35.21
2023-05-25T12:10:21.581Z,34.40
2023-05-25T12:11:21.588Z,34.40
2023-05-25T12:12:21.562Z,33.87
2023-05-25T12:13:21.113Z,33.54
2023-05-25T12:14:21.022Z,34.15
2023-05-25T12:15:21.819Z,34.03
2023-05-25T12:16:21.589Z,33.47
2023-05-25T12:17:21.578Z,34.22
2023-05-25T12:18:21.491Z,34.58
2023-05-25T12:19:21.475Z,34.36
2023-05-25T12:20:21.610Z,34.64
2023-05-25T12:21:21.467Z,34.95
2023-05-25T12:22:21.432Z,34.59
2023-05-25T12:23:21.435Z,34.78
2023-05-25T12:24:21.424Z,34.10
2023-05-25T12:25:21.405Z,34.97
2023-05-25T12:26:21.374Z,34.68
2023-05-25T12:27:21.373Z,35.27
2023-05-25T12:28:21.367Z,33.17
2023-05-25T12:29:21.382Z,33.75
2023-05-25T12:30:21.397Z,34.56
2023-05-25T12:31:21.518Z,34.08
2023-05-25T12:32:21.346Z,34.18
2023-05-25T12:33:21.286Z,33.47
2023-05-25T12:34:21.285Z,33.16
2023-05-25T12:35:20.965Z,33.36
2023-05-25T12:36:21.265Z,33.64
2023-05-25T12:37:21.379Z,35.13
2023-05-25T12:38:21.228Z,34.59
2023-05-25T12:39:23.205Z,34.20
2023-05-25T12:40:21.216Z,33.49
2023-05-25T12:41:21.204Z,33.07
2023-05-25T12:42:21.196Z,33.59
2023-05-25T12:43:21.139Z,32.68
2023-05-25T12:44:21.172Z,32.67
2023-05-25T12:45:21.137Z,32.39
2023-05-25T12:46:21.675Z,32.46
2023-05-25T12:47:21.114Z,31.97
2023-05-25T12:48:21.141Z,32.56
2023-05-25T12:49:21.103Z,33.37
2023-05-25T12:50:21.096Z,33.67
2023-05-25T12:51:21.041Z,32.79
2023-05-25T12:52:21.038Z,33.65
2023-05-25T12:53:21.028Z,33.26